KSEZ

Details ICAO KSEZ (SDX)
Name Sedona
Region United States
Timezone America/Phoenix (UTC-7.0)
Plans Departing 38
Arriving 83
Stats Elevation 4,827 ft / 1,471 m (AMSL)
Location 34.848607° -111.788482°
Runways 1
Magnetic Variation 10.458° E
Sunrise 2017-12-18 14:30:47 UTC / 2017-12-18 07:30:47 Local
Sunset 2017-12-19 00:19:45 UTC / 2017-12-18 17:19:45 Local
Advertisement - Login to hide

Runways

ID Width Length Bearing (true) Bearing (mag) Surface Threshold Offset Overrun Length
03 100 ft / 30 m 5,130 ft / 1,564 m 45.63° 35.17° Asphalt 0 ft / 0 m 0 ft / 0 m
21 100 ft / 30 m 5,130 ft / 1,564 m 225.64° 215.18° Asphalt 0 ft / 0 m 0 ft / 0 m

Map

Weather


0- 5 10 15 20 25 30 35+ Temperature / ° C

Clouds and Precipitation
Forecast for 2017-12-18 12:00 UTC. Updated 2 hours ago

Ground ~20,000 ft ~40,000 ft Winds

METAR

KSEZ 181255Z AUTO 27003KT 10SM CLR 04/M11 A3012 RMK AO2

TAF

TAF KSEZ 181120Z 1812/1912 05010KT P6SM FEW250 FM181600 VRB06KT P6SM FEW250 FM190300 04007KT P6SM FEW250

Frequencies

Recorded 118.52 MHz AWOS 2
Approach 124.50 MHz ALBUQUERQUE CNTR
Unicom 123.00 MHz CTAF/UNICOM
Warning: Do not use this data for real-world aviation or navigation. No guarantee of current accuracy is given.